DAL2118 KBOS-KRDU
Flight info
| Callsign | DAL2118 |
|---|---|
| Flight time | 1h 56m |
| Altitude | 30000 |
| Route | SSOXS7 SSOXS Q167 ZJAAY TAQLE3 |
| Aircraft | A321/M-SDE3FGHIRWY/LB1 |
Departure
| Time | 2026-05-07 00:02 |
|---|---|
| Airport | Boston Logan International Airport (KBOS) |
Arrival
| Time | 2026-05-07 01:58 |
|---|---|
| Airport | Raleigh-Durham International Airport (KRDU) |
| Time | Latitude | Longitude | Altitude | Speed | Heading |
|---|---|---|---|---|---|
| 2026-05-06 23:18 | 42.36097 | -71.02428 | 15 ft | 0 kts | 308° |
| 2026-05-06 23:37 | 42.36093 | -71.02422 | 15 ft | 2 kts | 301° |
| 2026-05-06 23:37 | 42.36089 | -71.02403 | 15 ft | 2 kts | 272° |
| 2026-05-06 23:38 | 42.36091 | -71.02383 | 15 ft | 2 kts | 248° |
| 2026-05-06 23:38 | 42.36097 | -71.02368 | 15 ft | 2 kts | 227° |
| 2026-05-06 23:38 | 42.36111 | -71.02355 | 15 ft | 2 kts | 199° |
| 2026-05-06 23:38 | 42.36126 | -71.02352 | 15 ft | 2 kts | 178° |
| 2026-05-06 23:39 | 42.36140 | -71.02352 | 15 ft | 2 kts | 184° |
| 2026-05-06 23:39 | 42.36155 | -71.02351 | 15 ft | 2 kts | 182° |
| 2026-05-06 23:39 | 42.36168 | -71.02350 | 15 ft | 0 kts | 183° |
| 2026-05-06 23:43 | 42.36167 | -71.02350 | 15 ft | 0 kts | 183° |
| 2026-05-06 23:43 | 42.36162 | -71.02351 | 15 ft | 1 kts | 182° |
| 2026-05-06 23:44 | 42.36145 | -71.02349 | 15 ft | 3 kts | 169° |
| 2026-05-06 23:44 | 42.36116 | -71.02337 | 15 ft | 5 kts | 158° |
| 2026-05-06 23:44 | 42.36077 | -71.02312 | 15 ft | 7 kts | 151° |
| 2026-05-06 23:44 | 42.36036 | -71.02262 | 15 ft | 8 kts | 127° |
| 2026-05-06 23:45 | 42.36000 | -71.02183 | 15 ft | 10 kts | 120° |
| 2026-05-06 23:45 | 42.35963 | -71.02096 | 17 ft | 10 kts | 121° |
| 2026-05-06 23:45 | 42.35925 | -71.02014 | 18 ft | 10 kts | 121° |
| 2026-05-06 23:45 | 42.35884 | -71.01925 | 18 ft | 11 kts | 120° |
| 2026-05-06 23:46 | 42.35852 | -71.01821 | 18 ft | 12 kts | 105° |
| 2026-05-06 23:46 | 42.35833 | -71.01710 | 18 ft | 12 kts | 101° |
| 2026-05-06 23:46 | 42.35828 | -71.01602 | 20 ft | 10 kts | 63° |
| 2026-05-06 23:46 | 42.35883 | -71.01553 | 21 ft | 9 kts | 18° |
| 2026-05-06 23:47 | 42.35952 | -71.01519 | 19 ft | 11 kts | 19° |
| 2026-05-06 23:47 | 42.36035 | -71.01478 | 18 ft | 13 kts | 21° |
| 2026-05-06 23:47 | 42.36123 | -71.01434 | 18 ft | 13 kts | 20° |
| 2026-05-06 23:47 | 42.36216 | -71.01389 | 18 ft | 14 kts | 19° |
| 2026-05-06 23:48 | 42.36311 | -71.01344 | 18 ft | 14 kts | 19° |
| 2026-05-06 23:48 | 42.36411 | -71.01296 | 18 ft | 15 kts | 19° |
| 2026-05-06 23:48 | 42.36512 | -71.01247 | 18 ft | 15 kts | 20° |
| 2026-05-06 23:48 | 42.36613 | -71.01199 | 16 ft | 11 kts | 21° |
| 2026-05-06 23:49 | 42.36695 | -71.01159 | 15 ft | 13 kts | 19° |
| 2026-05-06 23:49 | 42.36785 | -71.01154 | 15 ft | 13 kts | 335° |
| 2026-05-06 23:49 | 42.36858 | -71.01235 | 15 ft | 13 kts | 316° |
| 2026-05-06 23:49 | 42.36926 | -71.01328 | 15 ft | 14 kts | 315° |
| 2026-05-06 23:50 | 42.36998 | -71.01424 | 15 ft | 14 kts | 316° |
| 2026-05-06 23:50 | 42.37151 | -71.01614 | 14 ft | 9 kts | 341° |
| 2026-05-06 23:50 | 42.37205 | -71.01597 | 14 ft | 9 kts | 42° |
| 2026-05-06 23:51 | 42.37213 | -71.01510 | 12 ft | 10 kts | 116° |
| 2026-05-06 23:51 | 42.37161 | -71.01433 | 13 ft | 10 kts | 135° |
| 2026-05-06 23:51 | 42.37107 | -71.01360 | 14 ft | 11 kts | 135° |
| 2026-05-06 23:51 | 42.37054 | -71.01289 | 14 ft | 11 kts | 135° |
| 2026-05-06 23:52 | 42.37006 | -71.01224 | 15 ft | 0 kts | 135° |
| 2026-05-06 23:55 | 42.37005 | -71.01222 | 15 ft | 0 kts | 135° |
| 2026-05-06 23:55 | 42.36995 | -71.01209 | 15 ft | 3 kts | 136° |
| 2026-05-06 23:56 | 42.36972 | -71.01173 | 15 ft | 6 kts | 115° |
| 2026-05-06 23:56 | 42.36990 | -71.01112 | 15 ft | 9 kts | 37° |
| 2026-05-06 23:56 | 42.37059 | -71.01060 | 14 ft | 13 kts | 27° |
| 2026-05-06 23:56 | 42.37151 | -71.01002 | 12 ft | 15 kts | 25° |
| 2026-05-06 23:57 | 42.37228 | -71.00952 | 12 ft | 7 kts | 26° |
| 2026-05-06 23:57 | 42.37243 | -71.00942 | 12 ft | 0 kts | 26° |
| 2026-05-06 23:58 | 42.37247 | -71.00939 | 12 ft | 2 kts | 26° |
| 2026-05-06 23:58 | 42.37272 | -71.00922 | 12 ft | 5 kts | 25° |
| 2026-05-06 23:58 | 42.37321 | -71.00896 | 12 ft | 9 kts | 20° |
| 2026-05-06 23:59 | 42.37392 | -71.00861 | 12 ft | 11 kts | 20° |
| 2026-05-06 23:59 | 42.37471 | -71.00823 | 12 ft | 12 kts | 19° |
| 2026-05-06 23:59 | 42.37557 | -71.00781 | 12 ft | 13 kts | 20° |
| 2026-05-06 23:59 | 42.37645 | -71.00736 | 12 ft | 13 kts | 19° |
| 2026-05-07 00:00 | 42.37738 | -71.00692 | 12 ft | 14 kts | 19° |
| 2026-05-07 00:00 | 42.37829 | -71.00633 | 12 ft | 14 kts | 53° |
| 2026-05-07 00:00 | 42.37824 | -71.00525 | 12 ft | 11 kts | 110° |
| 2026-05-07 00:00 | 42.37758 | -71.00490 | 12 ft | 11 kts | 196° |
| 2026-05-07 00:01 | 42.37671 | -71.00531 | 12 ft | 22 kts | 202° |
| 2026-05-07 00:01 | 42.37286 | -71.00713 | 12 ft | 93 kts | 200° |
| 2026-05-07 00:01 | 42.36480 | -71.01104 | 18 ft | 151 kts | 199° |
| 2026-05-07 00:01 | 42.35413 | -71.01620 | 439 ft | 166 kts | 200° |
| 2026-05-07 00:02 | 42.34316 | -71.01960 | 1272 ft | 164 kts | 179° |
| 2026-05-07 00:02 | 42.33327 | -71.01298 | 2047 ft | 175 kts | 143° |
| 2026-05-07 00:02 | 42.32549 | -70.99904 | 2516 ft | 196 kts | 133° |
| 2026-05-07 00:02 | 42.31783 | -70.98303 | 2865 ft | 208 kts | 131° |
| 2026-05-07 00:03 | 42.31076 | -70.96502 | 3135 ft | 233 kts | 111° |
| 2026-05-07 00:03 | 42.31112 | -70.94231 | 3366 ft | 259 kts | 80° |
| 2026-05-07 00:03 | 42.31541 | -70.91781 | 3709 ft | 276 kts | 77° |
| 2026-05-07 00:03 | 42.32010 | -70.89176 | 4070 ft | 293 kts | 78° |
| 2026-05-07 00:04 | 42.32450 | -70.86465 | 4617 ft | 302 kts | 79° |
| 2026-05-07 00:04 | 42.32866 | -70.83685 | 5362 ft | 303 kts | 81° |
| 2026-05-07 00:04 | 42.33160 | -70.80880 | 6112 ft | 302 kts | 93° |
| 2026-05-07 00:04 | 42.32789 | -70.78134 | 6846 ft | 296 kts | 115° |
| 2026-05-07 00:05 | 42.31955 | -70.75616 | 7533 ft | 298 kts | 122° |
| 2026-05-07 00:05 | 42.31028 | -70.73078 | 8211 ft | 303 kts | 123° |
| 2026-05-07 00:05 | 42.30100 | -70.70551 | 8920 ft | 305 kts | 124° |
| 2026-05-07 00:05 | 42.28817 | -70.68355 | 9561 ft | 293 kts | 150° |
| 2026-05-07 00:06 | 42.27073 | -70.67164 | 10286 ft | 279 kts | 170° |
| 2026-05-07 00:06 | 42.25196 | -70.66363 | 10781 ft | 290 kts | 171° |
| 2026-05-07 00:06 | 42.23220 | -70.65534 | 11098 ft | 308 kts | 170° |
| 2026-05-07 00:06 | 42.21119 | -70.64616 | 11388 ft | 324 kts | 168° |
| 2026-05-07 00:07 | 42.18951 | -70.63638 | 11833 ft | 334 kts | 168° |
| 2026-05-07 00:07 | 42.16755 | -70.62630 | 12502 ft | 336 kts | 168° |
| 2026-05-07 00:07 | 42.14494 | -70.61971 | 13113 ft | 329 kts | 182° |
| 2026-05-07 00:07 | 42.12251 | -70.62148 | 13690 ft | 323 kts | 196° |
| 2026-05-07 00:08 | 42.10098 | -70.62972 | 14337 ft | 321 kts | 202° |
| 2026-05-07 00:08 | 42.07988 | -70.63905 | 14921 ft | 324 kts | 203° |
| 2026-05-07 00:08 | 42.05831 | -70.64871 | 15503 ft | 327 kts | 203° |
| 2026-05-07 00:08 | 42.03670 | -70.65833 | 16084 ft | 329 kts | 203° |
| 2026-05-07 00:09 | 42.01522 | -70.66783 | 16605 ft | 332 kts | 203° |
| 2026-05-07 00:09 | 41.99309 | -70.67760 | 17121 ft | 336 kts | 203° |
| 2026-05-07 00:09 | 41.97067 | -70.68746 | 17624 ft | 339 kts | 203° |
| 2026-05-07 00:09 | 41.94822 | -70.69734 | 18123 ft | 342 kts | 203° |
| 2026-05-07 00:10 | 41.92578 | -70.70718 | 18595 ft | 346 kts | 204° |
| 2026-05-07 00:10 | 41.90278 | -70.71725 | 19076 ft | 349 kts | 204° |
| 2026-05-07 00:10 | 41.87957 | -70.72742 | 19531 ft | 353 kts | 204° |
| 2026-05-07 00:10 | 41.85646 | -70.73810 | 19989 ft | 355 kts | 207° |
| 2026-05-07 00:11 | 41.83366 | -70.75074 | 20447 ft | 355 kts | 210° |
| 2026-05-07 00:11 | 41.81138 | -70.76543 | 20896 ft | 356 kts | 214° |
| 2026-05-07 00:11 | 41.78997 | -70.78139 | 21356 ft | 358 kts | 215° |
| 2026-05-07 00:11 | 41.76811 | -70.79775 | 21802 ft | 360 kts | 216° |
| 2026-05-07 00:12 | 41.74627 | -70.81413 | 22241 ft | 363 kts | 216° |
| 2026-05-07 00:12 | 41.72407 | -70.83077 | 22657 ft | 366 kts | 217° |
| 2026-05-07 00:12 | 41.70205 | -70.84729 | 23102 ft | 368 kts | 217° |
| 2026-05-07 00:12 | 41.67949 | -70.86421 | 23495 ft | 371 kts | 217° |
| 2026-05-07 00:13 | 41.65698 | -70.88113 | 23938 ft | 372 kts | 217° |
| 2026-05-07 00:13 | 41.63439 | -70.89803 | 24390 ft | 373 kts | 218° |
| 2026-05-07 00:13 | 41.61181 | -70.91492 | 24840 ft | 374 kts | 218° |
| 2026-05-07 00:13 | 41.58908 | -70.93190 | 25256 ft | 376 kts | 217° |
| 2026-05-07 00:14 | 41.56707 | -70.95000 | 25719 ft | 369 kts | 223° |
| 2026-05-07 00:14 | 41.54740 | -70.97190 | 26124 ft | 364 kts | 231° |
| 2026-05-07 00:14 | 41.53071 | -70.99672 | 26488 ft | 360 kts | 238° |
| 2026-05-07 00:14 | 41.51644 | -71.02364 | 26888 ft | 359 kts | 241° |
| 2026-05-07 00:15 | 41.50241 | -71.05141 | 27276 ft | 360 kts | 242° |
| 2026-05-07 00:15 | 41.48840 | -71.07931 | 27475 ft | 365 kts | 242° |
| 2026-05-07 00:15 | 41.47427 | -71.10754 | 27657 ft | 370 kts | 242° |
| 2026-05-07 00:15 | 41.46011 | -71.13574 | 27952 ft | 372 kts | 241° |
| 2026-05-07 00:16 | 41.44565 | -71.16447 | 28356 ft | 371 kts | 241° |
| 2026-05-07 00:16 | 41.43131 | -71.19295 | 28766 ft | 370 kts | 242° |
| 2026-05-07 00:16 | 41.41708 | -71.22127 | 29100 ft | 371 kts | 242° |
| 2026-05-07 00:16 | 41.40269 | -71.24985 | 29430 ft | 371 kts | 242° |
| 2026-05-07 00:17 | 41.38841 | -71.27824 | 29755 ft | 372 kts | 242° |
| 2026-05-07 00:17 | 41.37397 | -71.30688 | 29849 ft | 372 kts | 242° |
| 2026-05-07 00:17 | 41.34533 | -71.36357 | 29854 ft | 371 kts | 242° |
| 2026-05-07 00:18 | 41.31661 | -71.42036 | 29855 ft | 371 kts | 242° |
| 2026-05-07 00:18 | 41.28793 | -71.47706 | 29845 ft | 371 kts | 242° |
| 2026-05-07 00:19 | 41.25908 | -71.53397 | 29851 ft | 370 kts | 242° |
| 2026-05-07 00:19 | 41.23053 | -71.59021 | 29851 ft | 370 kts | 242° |
| 2026-05-07 00:20 | 41.20184 | -71.64661 | 29850 ft | 370 kts | 242° |
| 2026-05-07 00:20 | 41.17302 | -71.70309 | 29847 ft | 370 kts | 241° |
| 2026-05-07 00:21 | 41.14419 | -71.75951 | 29858 ft | 370 kts | 242° |
| 2026-05-07 00:21 | 41.11542 | -71.81611 | 29853 ft | 370 kts | 242° |
| 2026-05-07 00:22 | 41.08676 | -71.87246 | 29845 ft | 371 kts | 242° |
| 2026-05-07 00:22 | 41.05797 | -71.92902 | 29839 ft | 369 kts | 243° |
| 2026-05-07 00:23 | 41.03181 | -71.98665 | 29840 ft | 365 kts | 246° |
| 2026-05-07 00:23 | 41.00967 | -72.04625 | 29839 ft | 363 kts | 249° |
| 2026-05-07 00:24 | 40.98817 | -72.10660 | 29838 ft | 363 kts | 249° |
| 2026-05-07 00:24 | 40.96680 | -72.16699 | 29836 ft | 362 kts | 249° |
| 2026-05-07 00:25 | 40.94545 | -72.22718 | 29834 ft | 363 kts | 250° |
| 2026-05-07 00:25 | 40.92115 | -72.28594 | 29843 ft | 368 kts | 243° |
| 2026-05-07 00:26 | 40.89061 | -72.34060 | 29853 ft | 373 kts | 237° |
| 2026-05-07 00:26 | 40.85475 | -72.39039 | 29849 ft | 377 kts | 233° |
| 2026-05-07 00:27 | 40.81780 | -72.43936 | 29850 ft | 377 kts | 233° |
| 2026-05-07 00:27 | 40.77845 | -72.48558 | 29847 ft | 382 kts | 229° |
| 2026-05-07 00:28 | 40.73774 | -72.52997 | 29846 ft | 382 kts | 229° |
| 2026-05-07 00:28 | 40.69662 | -72.57465 | 29844 ft | 382 kts | 229° |
| 2026-05-07 00:29 | 40.65662 | -72.61977 | 29845 ft | 381 kts | 230° |
| 2026-05-07 00:30 | 40.57689 | -72.71172 | 29857 ft | 383 kts | 230° |
| 2026-05-07 00:30 | 40.53684 | -72.75775 | 29853 ft | 383 kts | 230° |
| 2026-05-07 00:31 | 40.49684 | -72.80356 | 29857 ft | 383 kts | 229° |
| 2026-05-07 00:31 | 40.45690 | -72.84919 | 29859 ft | 384 kts | 229° |
| 2026-05-07 00:32 | 40.41668 | -72.89510 | 29853 ft | 383 kts | 229° |
| 2026-05-07 00:32 | 40.37633 | -72.94104 | 29857 ft | 385 kts | 229° |
| 2026-05-07 00:33 | 40.33617 | -72.98678 | 29859 ft | 384 kts | 229° |
| 2026-05-07 00:33 | 40.29579 | -73.03257 | 29860 ft | 383 kts | 229° |
| 2026-05-07 00:34 | 40.25555 | -73.07816 | 29863 ft | 385 kts | 229° |
| 2026-05-07 00:34 | 40.21511 | -73.12392 | 29857 ft | 385 kts | 229° |
| 2026-05-07 00:35 | 40.17449 | -73.16982 | 29866 ft | 385 kts | 229° |
| 2026-05-07 00:35 | 40.13388 | -73.21560 | 29865 ft | 386 kts | 229° |
| 2026-05-07 00:36 | 40.09352 | -73.26101 | 29863 ft | 386 kts | 229° |
| 2026-05-07 00:36 | 40.05271 | -73.30683 | 29869 ft | 387 kts | 229° |
| 2026-05-07 00:37 | 40.01171 | -73.35273 | 29867 ft | 388 kts | 229° |
| 2026-05-07 00:37 | 39.97091 | -73.39840 | 29861 ft | 385 kts | 229° |
| 2026-05-07 00:38 | 39.93026 | -73.44374 | 29868 ft | 387 kts | 229° |
| 2026-05-07 00:38 | 39.88958 | -73.48913 | 29868 ft | 387 kts | 229° |
| 2026-05-07 00:39 | 39.84860 | -73.53475 | 29858 ft | 387 kts | 229° |
| 2026-05-07 00:39 | 39.80786 | -73.58006 | 29859 ft | 388 kts | 230° |
| 2026-05-07 00:40 | 39.76689 | -73.62563 | 29856 ft | 387 kts | 229° |
| 2026-05-07 00:40 | 39.72619 | -73.67082 | 29860 ft | 386 kts | 229° |
| 2026-05-07 00:41 | 39.68525 | -73.71616 | 29855 ft | 387 kts | 229° |
| 2026-05-07 00:41 | 39.64431 | -73.76157 | 29860 ft | 388 kts | 229° |
| 2026-05-07 00:42 | 39.60346 | -73.80674 | 29861 ft | 387 kts | 229° |
| 2026-05-07 00:42 | 39.56250 | -73.85189 | 29861 ft | 389 kts | 229° |
| 2026-05-07 00:43 | 39.52141 | -73.89721 | 29859 ft | 387 kts | 229° |
| 2026-05-07 00:43 | 39.48048 | -73.94226 | 29863 ft | 389 kts | 229° |
| 2026-05-07 00:44 | 39.43910 | -73.98770 | 29857 ft | 389 kts | 230° |
| 2026-05-07 00:44 | 39.39794 | -74.03285 | 29859 ft | 387 kts | 229° |
| 2026-05-07 00:45 | 39.35684 | -74.07770 | 29863 ft | 389 kts | 229° |
| 2026-05-07 00:45 | 39.31566 | -74.12267 | 29866 ft | 388 kts | 229° |
| 2026-05-07 00:46 | 39.27441 | -74.16760 | 29869 ft | 389 kts | 229° |
| 2026-05-07 00:46 | 39.23345 | -74.21220 | 29867 ft | 386 kts | 229° |
| 2026-05-07 00:47 | 39.19223 | -74.25694 | 29868 ft | 388 kts | 229° |
| 2026-05-07 00:47 | 39.15095 | -74.30180 | 29868 ft | 387 kts | 229° |
| 2026-05-07 00:48 | 39.10992 | -74.34619 | 29863 ft | 388 kts | 229° |
| 2026-05-07 00:48 | 39.06864 | -74.39088 | 29868 ft | 387 kts | 229° |
| 2026-05-07 00:49 | 39.02746 | -74.43534 | 29867 ft | 386 kts | 229° |
| 2026-05-07 00:49 | 38.98652 | -74.47947 | 29861 ft | 386 kts | 229° |
| 2026-05-07 00:50 | 38.94539 | -74.52388 | 29862 ft | 386 kts | 230° |
| 2026-05-07 00:50 | 38.90568 | -74.57003 | 29868 ft | 387 kts | 231° |
| 2026-05-07 00:51 | 38.86601 | -74.61639 | 29864 ft | 385 kts | 231° |
| 2026-05-07 00:51 | 38.82639 | -74.66268 | 29872 ft | 386 kts | 230° |
| 2026-05-07 00:52 | 38.78672 | -74.70901 | 29870 ft | 385 kts | 231° |
| 2026-05-07 00:52 | 38.74670 | -74.75493 | 29868 ft | 389 kts | 229° |
| 2026-05-07 00:53 | 38.70461 | -74.79896 | 29872 ft | 390 kts | 227° |
| 2026-05-07 00:53 | 38.66275 | -74.84267 | 29872 ft | 390 kts | 227° |
| 2026-05-07 00:54 | 38.62065 | -74.88649 | 29873 ft | 393 kts | 227° |
| 2026-05-07 00:54 | 38.57803 | -74.93080 | 29876 ft | 393 kts | 227° |
| 2026-05-07 00:55 | 38.53576 | -74.97466 | 29881 ft | 392 kts | 227° |
| 2026-05-07 00:55 | 38.49469 | -75.02017 | 29880 ft | 390 kts | 229° |
| 2026-05-07 00:56 | 38.45280 | -75.06418 | 29883 ft | 394 kts | 225° |
| 2026-05-07 00:56 | 38.40894 | -75.10583 | 29884 ft | 394 kts | 225° |
| 2026-05-07 00:57 | 38.36493 | -75.14783 | 29885 ft | 395 kts | 225° |
| 2026-05-07 00:57 | 38.32080 | -75.18971 | 29677 ft | 397 kts | 225° |
| 2026-05-07 00:58 | 38.29868 | -75.21072 | 29420 ft | 398 kts | 225° |
| 2026-05-07 00:58 | 38.27665 | -75.23158 | 29163 ft | 398 kts | 225° |
| 2026-05-07 00:58 | 38.25419 | -75.25283 | 28902 ft | 399 kts | 224° |
| 2026-05-07 00:58 | 38.23207 | -75.27377 | 28650 ft | 398 kts | 225° |
| 2026-05-07 00:59 | 38.18787 | -75.31550 | 28133 ft | 397 kts | 224° |
| 2026-05-07 00:59 | 38.16560 | -75.33654 | 27877 ft | 397 kts | 224° |
| 2026-05-07 00:59 | 38.14350 | -75.35736 | 27621 ft | 394 kts | 224° |
| 2026-05-07 01:00 | 38.12151 | -75.37807 | 27361 ft | 394 kts | 224° |
| 2026-05-07 01:00 | 38.09962 | -75.39872 | 27107 ft | 392 kts | 224° |
| 2026-05-07 01:00 | 38.07771 | -75.41932 | 26855 ft | 391 kts | 224° |
| 2026-05-07 01:00 | 38.05653 | -75.44019 | 26599 ft | 388 kts | 227° |
| 2026-05-07 01:01 | 38.03616 | -75.46243 | 26344 ft | 385 kts | 229° |
| 2026-05-07 01:01 | 38.01651 | -75.48543 | 26092 ft | 384 kts | 229° |
| 2026-05-07 01:01 | 37.99685 | -75.50842 | 25838 ft | 383 kts | 229° |
| 2026-05-07 01:01 | 37.97731 | -75.53123 | 25584 ft | 381 kts | 229° |
| 2026-05-07 01:02 | 37.95783 | -75.55401 | 25329 ft | 381 kts | 229° |
| 2026-05-07 01:02 | 37.93829 | -75.57682 | 25079 ft | 379 kts | 230° |
| 2026-05-07 01:02 | 37.91917 | -75.59918 | 24828 ft | 378 kts | 230° |
| 2026-05-07 01:02 | 37.89965 | -75.62201 | 24572 ft | 377 kts | 230° |
| 2026-05-07 01:03 | 37.88047 | -75.64439 | 24322 ft | 377 kts | 230° |
| 2026-05-07 01:03 | 37.86121 | -75.66688 | 24078 ft | 377 kts | 229° |
| 2026-05-07 01:03 | 37.84191 | -75.68939 | 23911 ft | 376 kts | 229° |
| 2026-05-07 01:03 | 37.82267 | -75.71181 | 23908 ft | 377 kts | 229° |
| 2026-05-07 01:04 | 37.80352 | -75.73413 | 23903 ft | 378 kts | 229° |
| 2026-05-07 01:04 | 37.78421 | -75.75658 | 23902 ft | 378 kts | 229° |
| 2026-05-07 01:04 | 37.76476 | -75.77923 | 23899 ft | 378 kts | 229° |
| 2026-05-07 01:04 | 37.74562 | -75.80148 | 23902 ft | 379 kts | 229° |
| 2026-05-07 01:05 | 37.72601 | -75.82422 | 23904 ft | 379 kts | 229° |
| 2026-05-07 01:05 | 37.70662 | -75.84668 | 23895 ft | 378 kts | 229° |
| 2026-05-07 01:05 | 37.68745 | -75.86896 | 23894 ft | 378 kts | 229° |
| 2026-05-07 01:05 | 37.66796 | -75.89154 | 23890 ft | 378 kts | 229° |
| 2026-05-07 01:06 | 37.64859 | -75.91393 | 23895 ft | 380 kts | 229° |
| 2026-05-07 01:06 | 37.62925 | -75.93636 | 23895 ft | 379 kts | 229° |
| 2026-05-07 01:06 | 37.61061 | -75.95962 | 23893 ft | 378 kts | 232° |
| 2026-05-07 01:06 | 37.59296 | -75.98399 | 23895 ft | 376 kts | 234° |
| 2026-05-07 01:07 | 37.57616 | -76.00955 | 23894 ft | 376 kts | 236° |
| 2026-05-07 01:07 | 37.55978 | -76.03495 | 23891 ft | 375 kts | 236° |
| 2026-05-07 01:07 | 37.54334 | -76.06044 | 23892 ft | 375 kts | 236° |
| 2026-05-07 01:07 | 37.52682 | -76.08604 | 23888 ft | 376 kts | 236° |
| 2026-05-07 01:08 | 37.51038 | -76.11152 | 23887 ft | 377 kts | 236° |
| 2026-05-07 01:08 | 37.49390 | -76.13708 | 23887 ft | 376 kts | 236° |
| 2026-05-07 01:08 | 37.47751 | -76.16244 | 23889 ft | 376 kts | 236° |
| 2026-05-07 01:08 | 37.46103 | -76.18792 | 23893 ft | 376 kts | 236° |
| 2026-05-07 01:09 | 37.44439 | -76.21365 | 23898 ft | 376 kts | 236° |
| 2026-05-07 01:09 | 37.42795 | -76.23901 | 23902 ft | 374 kts | 236° |
| 2026-05-07 01:09 | 37.41150 | -76.26445 | 23899 ft | 374 kts | 236° |
| 2026-05-07 01:09 | 37.39515 | -76.28966 | 23902 ft | 374 kts | 236° |
| 2026-05-07 01:10 | 37.37872 | -76.31501 | 23897 ft | 374 kts | 237° |
| 2026-05-07 01:10 | 37.36492 | -76.34216 | 23889 ft | 367 kts | 250° |
| 2026-05-07 01:10 | 37.35692 | -76.37221 | 23903 ft | 365 kts | 257° |
| 2026-05-07 01:10 | 37.35074 | -76.40340 | 23902 ft | 364 kts | 259° |
| 2026-05-07 01:11 | 37.34506 | -76.43430 | 23903 ft | 365 kts | 259° |
| 2026-05-07 01:11 | 37.33941 | -76.46527 | 23902 ft | 365 kts | 259° |
| 2026-05-07 01:11 | 37.33371 | -76.49627 | 23906 ft | 365 kts | 259° |
| 2026-05-07 01:11 | 37.32819 | -76.52715 | 23906 ft | 364 kts | 259° |
| 2026-05-07 01:12 | 37.32262 | -76.55814 | 23905 ft | 364 kts | 260° |
| 2026-05-07 01:12 | 37.31704 | -76.58891 | 23908 ft | 364 kts | 259° |
| 2026-05-07 01:12 | 37.31144 | -76.62000 | 23907 ft | 365 kts | 260° |
| 2026-05-07 01:12 | 37.30583 | -76.65092 | 23906 ft | 365 kts | 259° |
| 2026-05-07 01:13 | 37.30024 | -76.68208 | 23909 ft | 364 kts | 259° |
| 2026-05-07 01:13 | 37.29473 | -76.71291 | 23907 ft | 365 kts | 259° |
| 2026-05-07 01:13 | 37.28923 | -76.74391 | 23904 ft | 364 kts | 259° |
| 2026-05-07 01:13 | 37.28369 | -76.77483 | 23903 ft | 364 kts | 259° |
| 2026-05-07 01:14 | 37.27815 | -76.80609 | 23898 ft | 365 kts | 259° |
| 2026-05-07 01:14 | 37.27264 | -76.83703 | 23899 ft | 364 kts | 259° |
| 2026-05-07 01:14 | 37.26714 | -76.86772 | 23766 ft | 358 kts | 259° |
| 2026-05-07 01:14 | 37.26174 | -76.89772 | 23189 ft | 356 kts | 259° |
| 2026-05-07 01:15 | 37.25634 | -76.92800 | 22485 ft | 356 kts | 259° |
| 2026-05-07 01:15 | 37.25087 | -76.95813 | 22049 ft | 352 kts | 259° |
| 2026-05-07 01:15 | 37.24547 | -76.98766 | 21899 ft | 353 kts | 259° |
| 2026-05-07 01:15 | 37.23998 | -77.01799 | 21908 ft | 355 kts | 259° |
| 2026-05-07 01:16 | 37.23455 | -77.04805 | 21902 ft | 354 kts | 259° |
| 2026-05-07 01:16 | 37.22922 | -77.07812 | 21894 ft | 353 kts | 260° |
| 2026-05-07 01:16 | 37.22395 | -77.10805 | 21895 ft | 354 kts | 260° |
| 2026-05-07 01:16 | 37.21861 | -77.13790 | 21894 ft | 354 kts | 259° |
| 2026-05-07 01:17 | 37.21321 | -77.16839 | 21895 ft | 353 kts | 259° |
| 2026-05-07 01:17 | 37.20800 | -77.19812 | 21891 ft | 352 kts | 259° |
| 2026-05-07 01:17 | 37.20269 | -77.22832 | 21894 ft | 353 kts | 259° |
| 2026-05-07 01:17 | 37.19738 | -77.25823 | 21896 ft | 354 kts | 260° |
| 2026-05-07 01:18 | 37.19208 | -77.28822 | 21894 ft | 353 kts | 259° |
| 2026-05-07 01:18 | 37.18678 | -77.31829 | 21893 ft | 354 kts | 260° |
| 2026-05-07 01:18 | 37.18146 | -77.34816 | 21898 ft | 353 kts | 260° |
| 2026-05-07 01:18 | 37.17409 | -77.37746 | 21881 ft | 354 kts | 247° |
| 2026-05-07 01:19 | 37.15967 | -77.40156 | 21896 ft | 345 kts | 232° |
| 2026-05-07 01:19 | 37.14094 | -77.41969 | 21888 ft | 338 kts | 219° |
| 2026-05-07 01:19 | 37.12067 | -77.43396 | 21709 ft | 328 kts | 218° |
| 2026-05-07 01:19 | 37.10110 | -77.44741 | 21486 ft | 319 kts | 218° |
| 2026-05-07 01:20 | 37.08173 | -77.46080 | 21091 ft | 316 kts | 218° |
| 2026-05-07 01:20 | 37.06244 | -77.47423 | 20665 ft | 313 kts | 219° |
| 2026-05-07 01:20 | 37.04353 | -77.48736 | 20220 ft | 311 kts | 219° |
| 2026-05-07 01:20 | 37.02484 | -77.50040 | 19776 ft | 310 kts | 219° |
| 2026-05-07 01:21 | 37.00608 | -77.51347 | 19342 ft | 307 kts | 219° |
| 2026-05-07 01:21 | 36.98754 | -77.52640 | 18918 ft | 305 kts | 219° |
| 2026-05-07 01:21 | 36.96893 | -77.53937 | 18459 ft | 304 kts | 219° |
| 2026-05-07 01:21 | 36.95065 | -77.55214 | 18074 ft | 302 kts | 219° |
| 2026-05-07 01:22 | 36.93225 | -77.56493 | 17674 ft | 301 kts | 219° |
| 2026-05-07 01:22 | 36.91405 | -77.57764 | 17260 ft | 299 kts | 219° |
| 2026-05-07 01:22 | 36.89593 | -77.59029 | 16822 ft | 299 kts | 218° |
| 2026-05-07 01:22 | 36.87782 | -77.60290 | 16420 ft | 297 kts | 218° |
| 2026-05-07 01:23 | 36.86003 | -77.61526 | 16017 ft | 295 kts | 218° |
| 2026-05-07 01:23 | 36.84205 | -77.62777 | 15592 ft | 293 kts | 218° |
| 2026-05-07 01:23 | 36.82429 | -77.64011 | 15177 ft | 292 kts | 217° |
| 2026-05-07 01:23 | 36.80673 | -77.65231 | 14783 ft | 291 kts | 216° |
| 2026-05-07 01:24 | 36.78892 | -77.66466 | 14382 ft | 290 kts | 216° |
| 2026-05-07 01:24 | 36.77156 | -77.67670 | 14012 ft | 288 kts | 216° |
| 2026-05-07 01:24 | 36.75400 | -77.68886 | 13618 ft | 287 kts | 216° |
| 2026-05-07 01:24 | 36.73659 | -77.70091 | 13246 ft | 285 kts | 215° |
| 2026-05-07 01:25 | 36.71934 | -77.71284 | 12898 ft | 282 kts | 216° |
| 2026-05-07 01:25 | 36.70228 | -77.72463 | 12512 ft | 281 kts | 215° |
| 2026-05-07 01:25 | 36.68520 | -77.73644 | 12110 ft | 280 kts | 215° |
| 2026-05-07 01:25 | 36.66809 | -77.74826 | 11717 ft | 279 kts | 215° |
| 2026-05-07 01:26 | 36.65136 | -77.75983 | 11348 ft | 277 kts | 214° |
| 2026-05-07 01:26 | 36.63443 | -77.77152 | 10880 ft | 280 kts | 214° |
| 2026-05-07 01:26 | 36.61722 | -77.78346 | 10149 ft | 291 kts | 214° |
| 2026-05-07 01:26 | 36.59934 | -77.79584 | 9575 ft | 294 kts | 213° |
| 2026-05-07 01:27 | 36.58154 | -77.80808 | 9150 ft | 292 kts | 213° |
| 2026-05-07 01:27 | 36.56385 | -77.82021 | 8731 ft | 290 kts | 213° |
| 2026-05-07 01:27 | 36.54619 | -77.83234 | 8500 ft | 287 kts | 213° |
| 2026-05-07 01:27 | 36.52869 | -77.84435 | 8379 ft | 288 kts | 214° |
| 2026-05-07 01:28 | 36.51123 | -77.85636 | 8271 ft | 288 kts | 213° |
| 2026-05-07 01:28 | 36.49355 | -77.86852 | 8204 ft | 288 kts | 213° |
| 2026-05-07 01:28 | 36.47610 | -77.88055 | 8230 ft | 288 kts | 213° |
| 2026-05-07 01:28 | 36.45853 | -77.89259 | 8238 ft | 289 kts | 214° |
| 2026-05-07 01:29 | 36.44099 | -77.90463 | 8249 ft | 289 kts | 214° |
| 2026-05-07 01:29 | 36.42343 | -77.91668 | 8249 ft | 289 kts | 214° |
| 2026-05-07 01:29 | 36.40585 | -77.92876 | 8254 ft | 289 kts | 213° |
| 2026-05-07 01:29 | 36.38817 | -77.94085 | 8252 ft | 288 kts | 214° |
| 2026-05-07 01:30 | 36.37061 | -77.95290 | 8254 ft | 288 kts | 214° |
| 2026-05-07 01:30 | 36.35303 | -77.96493 | 8253 ft | 289 kts | 214° |
| 2026-05-07 01:30 | 36.33554 | -77.97689 | 8257 ft | 289 kts | 214° |
| 2026-05-07 01:30 | 36.31786 | -77.98899 | 8261 ft | 288 kts | 214° |
| 2026-05-07 01:31 | 36.30048 | -78.00088 | 8263 ft | 287 kts | 214° |
| 2026-05-07 01:31 | 36.28280 | -78.01295 | 8232 ft | 288 kts | 214° |
| 2026-05-07 01:31 | 36.26538 | -78.02483 | 8111 ft | 286 kts | 214° |
| 2026-05-07 01:31 | 36.24799 | -78.03707 | 7985 ft | 285 kts | 219° |
| 2026-05-07 01:32 | 36.23334 | -78.05281 | 7966 ft | 279 kts | 232° |
| 2026-05-07 01:32 | 36.22233 | -78.07248 | 7967 ft | 276 kts | 245° |
| 2026-05-07 01:32 | 36.21406 | -78.09390 | 7962 ft | 276 kts | 248° |
| 2026-05-07 01:32 | 36.20637 | -78.11557 | 7962 ft | 275 kts | 249° |
| 2026-05-07 01:33 | 36.19912 | -78.13737 | 7961 ft | 275 kts | 249° |
| 2026-05-07 01:33 | 36.19189 | -78.15913 | 7964 ft | 276 kts | 249° |
| 2026-05-07 01:33 | 36.18455 | -78.18111 | 7962 ft | 275 kts | 249° |
| 2026-05-07 01:33 | 36.17726 | -78.20290 | 7963 ft | 275 kts | 249° |
| 2026-05-07 01:34 | 36.16990 | -78.22487 | 7969 ft | 275 kts | 249° |
| 2026-05-07 01:34 | 36.16260 | -78.24659 | 7964 ft | 267 kts | 249° |
| 2026-05-07 01:34 | 36.15579 | -78.26701 | 7852 ft | 254 kts | 250° |
| 2026-05-07 01:34 | 36.15013 | -78.28747 | 7553 ft | 249 kts | 255° |
| 2026-05-07 01:35 | 36.14592 | -78.30818 | 7191 ft | 247 kts | 258° |
| 2026-05-07 01:35 | 36.14219 | -78.32889 | 6814 ft | 246 kts | 258° |
| 2026-05-07 01:35 | 36.13856 | -78.34927 | 6430 ft | 245 kts | 258° |
| 2026-05-07 01:35 | 36.13485 | -78.36996 | 6051 ft | 244 kts | 258° |
| 2026-05-07 01:36 | 36.13124 | -78.39023 | 5693 ft | 243 kts | 257° |
| 2026-05-07 01:36 | 36.12762 | -78.41045 | 5321 ft | 241 kts | 257° |
| 2026-05-07 01:36 | 36.12394 | -78.43055 | 5012 ft | 239 kts | 255° |
| 2026-05-07 01:36 | 36.11737 | -78.44958 | 4973 ft | 241 kts | 239° |
| 2026-05-07 01:37 | 36.10700 | -78.46579 | 4971 ft | 245 kts | 227° |
| 2026-05-07 01:37 | 36.09596 | -78.48177 | 4961 ft | 242 kts | 242° |
| 2026-05-07 01:37 | 36.08913 | -78.50060 | 4967 ft | 238 kts | 249° |
| 2026-05-07 01:37 | 36.08366 | -78.51907 | 4960 ft | 222 kts | 251° |
| 2026-05-07 01:38 | 36.07841 | -78.53625 | 4950 ft | 207 kts | 247° |
| 2026-05-07 01:38 | 36.07216 | -78.55161 | 4947 ft | 191 kts | 239° |
| 2026-05-07 01:38 | 36.06478 | -78.56417 | 4918 ft | 178 kts | 233° |
| 2026-05-07 01:38 | 36.05688 | -78.57539 | 4742 ft | 172 kts | 232° |
| 2026-05-07 01:39 | 36.04886 | -78.58612 | 4514 ft | 169 kts | 230° |
| 2026-05-07 01:39 | 36.04081 | -78.59653 | 4285 ft | 165 kts | 229° |
| 2026-05-07 01:39 | 36.03263 | -78.60687 | 4093 ft | 178 kts | 229° |
| 2026-05-07 01:39 | 36.02370 | -78.61806 | 3871 ft | 188 kts | 228° |
| 2026-05-07 01:40 | 36.01462 | -78.62924 | 3714 ft | 178 kts | 228° |
| 2026-05-07 01:40 | 36.00597 | -78.63985 | 3450 ft | 169 kts | 228° |
| 2026-05-07 01:40 | 35.99795 | -78.64970 | 3196 ft | 158 kts | 227° |
| 2026-05-07 01:40 | 35.99039 | -78.65897 | 3011 ft | 147 kts | 227° |
| 2026-05-07 01:41 | 35.98342 | -78.66755 | 2788 ft | 138 kts | 227° |
| 2026-05-07 01:41 | 35.97676 | -78.67569 | 2586 ft | 130 kts | 227° |
| 2026-05-07 01:41 | 35.97009 | -78.68300 | 2429 ft | 130 kts | 217° |
| 2026-05-07 01:41 | 35.96244 | -78.68921 | 2394 ft | 131 kts | 217° |
| 2026-05-07 01:42 | 35.95484 | -78.69540 | 2367 ft | 132 kts | 217° |
| 2026-05-07 01:42 | 35.94710 | -78.70170 | 2334 ft | 132 kts | 216° |
| 2026-05-07 01:42 | 35.93935 | -78.70775 | 2253 ft | 132 kts | 216° |
| 2026-05-07 01:42 | 35.93209 | -78.71467 | 2096 ft | 131 kts | 223° |
| 2026-05-07 01:43 | 35.92569 | -78.72227 | 1782 ft | 127 kts | 225° |
| 2026-05-07 01:43 | 35.91939 | -78.72974 | 1520 ft | 127 kts | 224° |
| 2026-05-07 01:43 | 35.91300 | -78.73739 | 1466 ft | 129 kts | 225° |
| 2026-05-07 01:43 | 35.90659 | -78.74531 | 1353 ft | 131 kts | 226° |
| 2026-05-07 01:44 | 35.90030 | -78.75328 | 1123 ft | 132 kts | 225° |
| 2026-05-07 01:44 | 35.89382 | -78.76131 | 873 ft | 134 kts | 225° |
| 2026-05-07 01:44 | 35.88713 | -78.76962 | 661 ft | 137 kts | 224° |
| 2026-05-07 01:44 | 35.88041 | -78.77789 | 525 ft | 139 kts | 223° |
| 2026-05-07 01:45 | 35.87310 | -78.78701 | 823 ft | 159 kts | 225° |
| 2026-05-07 01:45 | 35.86454 | -78.79610 | 1548 ft | 175 kts | 210° |
| 2026-05-07 01:45 | 35.85326 | -78.80379 | 2212 ft | 198 kts | 220° |
| 2026-05-07 01:45 | 35.84267 | -78.81425 | 2856 ft | 183 kts | 212° |
| 2026-05-07 01:46 | 35.83109 | -78.82023 | 3228 ft | 194 kts | 203° |
| 2026-05-07 01:46 | 35.81711 | -78.82557 | 3790 ft | 233 kts | 201° |
| 2026-05-07 01:46 | 35.79975 | -78.83205 | 3986 ft | 286 kts | 200° |
| 2026-05-07 01:46 | 35.77900 | -78.84000 | 3986 ft | 327 kts | 200° |
| 2026-05-07 01:47 | 35.75807 | -78.84802 | 3976 ft | 306 kts | 201° |
| 2026-05-07 01:47 | 35.73827 | -78.85548 | 3974 ft | 286 kts | 200° |
| 2026-05-07 01:47 | 35.71979 | -78.86235 | 3967 ft | 268 kts | 200° |
| 2026-05-07 01:47 | 35.70208 | -78.86677 | 3953 ft | 257 kts | 184° |
| 2026-05-07 01:48 | 35.68509 | -78.86124 | 3952 ft | 254 kts | 155° |
| 2026-05-07 01:48 | 35.67245 | -78.84596 | 3956 ft | 255 kts | 124° |
| 2026-05-07 01:48 | 35.66775 | -78.82551 | 3962 ft | 256 kts | 92° |
| 2026-05-07 01:48 | 35.67206 | -78.80351 | 3982 ft | 284 kts | 62° |
| 2026-05-07 01:49 | 35.68500 | -78.78465 | 3981 ft | 290 kts | 33° |
| 2026-05-07 01:49 | 35.70246 | -78.77222 | 3984 ft | 289 kts | 23° |
| 2026-05-07 01:49 | 35.72028 | -78.76174 | 3975 ft | 288 kts | 21° |
| 2026-05-07 01:49 | 35.73863 | -78.75135 | 3976 ft | 288 kts | 20° |
| 2026-05-07 01:50 | 35.75681 | -78.74108 | 3976 ft | 287 kts | 20° |
| 2026-05-07 01:50 | 35.77481 | -78.73086 | 3970 ft | 287 kts | 20° |
| 2026-05-07 01:50 | 35.79321 | -78.72035 | 3969 ft | 289 kts | 21° |
| 2026-05-07 01:50 | 35.80978 | -78.70625 | 3961 ft | 294 kts | 44° |
| 2026-05-07 01:51 | 35.82322 | -78.68730 | 3970 ft | 294 kts | 44° |
| 2026-05-07 01:51 | 35.83762 | -78.66968 | 3971 ft | 293 kts | 41° |
| 2026-05-07 01:51 | 35.85249 | -78.65234 | 3975 ft | 292 kts | 40° |
| 2026-05-07 01:51 | 35.86715 | -78.63545 | 3972 ft | 293 kts | 40° |
| 2026-05-07 01:52 | 35.88209 | -78.61828 | 3970 ft | 292 kts | 40° |
| 2026-05-07 01:52 | 35.89682 | -78.60135 | 3971 ft | 292 kts | 40° |
| 2026-05-07 01:52 | 35.91170 | -78.58440 | 3966 ft | 293 kts | 38° |
| 2026-05-07 01:52 | 35.92916 | -78.57171 | 3956 ft | 285 kts | 12° |
| 2026-05-07 01:53 | 35.94821 | -78.56988 | 3965 ft | 273 kts | 344° |
| 2026-05-07 01:53 | 35.96519 | -78.57862 | 3975 ft | 260 kts | 318° |
| 2026-05-07 01:53 | 35.97906 | -78.59284 | 3981 ft | 257 kts | 311° |
| 2026-05-07 01:53 | 35.99204 | -78.60786 | 3974 ft | 256 kts | 306° |
| 2026-05-07 01:54 | 36.00010 | -78.62646 | 3967 ft | 242 kts | 277° |
| 2026-05-07 01:54 | 35.99925 | -78.64620 | 3961 ft | 221 kts | 248° |
| 2026-05-07 01:54 | 35.99077 | -78.66110 | 3878 ft | 211 kts | 226° |
| 2026-05-07 01:54 | 35.97999 | -78.67291 | 3727 ft | 204 kts | 224° |
| 2026-05-07 01:55 | 35.96999 | -78.68411 | 3498 ft | 189 kts | 226° |
| 2026-05-07 01:55 | 35.96093 | -78.69499 | 3329 ft | 170 kts | 227° |
| 2026-05-07 01:55 | 35.95303 | -78.70476 | 3121 ft | 154 kts | 227° |
| 2026-05-07 01:55 | 35.94590 | -78.71384 | 2802 ft | 147 kts | 230° |
| 2026-05-07 01:56 | 35.93862 | -78.72356 | 2084 ft | 163 kts | 229° |
| 2026-05-07 01:56 | 35.93071 | -78.73279 | 1713 ft | 151 kts | 223° |
| 2026-05-07 01:56 | 35.92337 | -78.74166 | 1356 ft | 144 kts | 227° |
| 2026-05-07 01:56 | 35.91639 | -78.74998 | 1093 ft | 133 kts | 225° |
| 2026-05-07 01:57 | 35.90994 | -78.75813 | 828 ft | 134 kts | 226° |
| 2026-05-07 01:57 | 35.90336 | -78.76630 | 690 ft | 137 kts | 224° |
| 2026-05-07 01:57 | 35.89660 | -78.77466 | 519 ft | 139 kts | 224° |
| 2026-05-07 01:57 | 35.88976 | -78.78310 | 392 ft | 133 kts | 223° |
| 2026-05-07 01:58 | 35.88504 | -78.78889 | 394 ft | 52 kts | 225° |
| 2026-05-07 01:58 | 35.88327 | -78.79064 | 389 ft | 17 kts | 191° |
| 2026-05-07 01:58 | 35.88264 | -78.79050 | 391 ft | 7 kts | 173° |
| 2026-05-07 01:58 | 35.88255 | -78.79050 | 392 ft | 3 kts | 176° |
| 2026-05-07 01:59 | 35.88231 | -78.79051 | 392 ft | 0 kts | 181° |
| 2026-05-07 01:59 | 35.88229 | -78.79050 | 392 ft | 1 kts | 162° |
| 2026-05-07 01:59 | 35.88220 | -78.79018 | 394 ft | 4 kts | 104° |
| 2026-05-07 01:59 | 35.88213 | -78.78999 | 395 ft | 1 kts | 128° |
| 2026-05-07 02:00 | 35.88174 | -78.79008 | 396 ft | 8 kts | 208° |
| 2026-05-07 02:00 | 35.88132 | -78.79053 | 395 ft | 7 kts | 226° |
| 2026-05-07 02:00 | 35.88131 | -78.79055 | 395 ft | 0 kts | 226° |
| 2026-05-07 02:00 | 35.88129 | -78.79058 | 395 ft | 2 kts | 226° |
| 2026-05-07 02:01 | 35.88106 | -78.79088 | 394 ft | 7 kts | 231° |
| 2026-05-07 02:01 | 35.88095 | -78.79170 | 391 ft | 13 kts | 264° |
| 2026-05-07 02:01 | 35.88034 | -78.79279 | 387 ft | 16 kts | 224° |
| 2026-05-07 02:01 | 35.87947 | -78.79386 | 384 ft | 18 kts | 225° |
| 2026-05-07 02:02 | 35.87851 | -78.79504 | 382 ft | 19 kts | 224° |
| 2026-05-07 02:02 | 35.87750 | -78.79627 | 380 ft | 21 kts | 226° |
| 2026-05-07 02:02 | 35.87643 | -78.79759 | 377 ft | 22 kts | 224° |
| 2026-05-07 02:02 | 35.87545 | -78.79813 | 377 ft | 13 kts | 141° |
| 2026-05-07 02:03 | 35.87481 | -78.79747 | 381 ft | 10 kts | 136° |
| 2026-05-07 02:03 | 35.87435 | -78.79692 | 384 ft | 8 kts | 135° |
| 2026-05-07 02:03 | 35.87411 | -78.79650 | 386 ft | 4 kts | 105° |
| 2026-05-07 02:03 | 35.87411 | -78.79630 | 387 ft | 0 kts | 78° |
| 2026-05-07 02:04 | 35.87416 | -78.79620 | 388 ft | 3 kts | 53° |
| 2026-05-07 02:04 | 35.87443 | -78.79583 | 389 ft | 10 kts | 47° |
| 2026-05-07 02:04 | 35.87503 | -78.79507 | 389 ft | 11 kts | 44° |
| 2026-05-07 02:04 | 35.87548 | -78.79458 | 391 ft | 6 kts | 33° |
| 2026-05-07 02:05 | 35.87574 | -78.79471 | 390 ft | 1 kts | 308° |
| 2026-05-07 02:05 | 35.87587 | -78.79485 | 389 ft | 0 kts | 316° |